createdAt,value
2019-04-20T00:00:55.072Z,100831.91
2019-04-20T00:03:38.058Z,100836.98
2019-04-20T00:06:09.254Z,100831.00
2019-04-20T00:08:46.267Z,100837.84
2019-04-20T00:11:28.180Z,100831.35
2019-04-20T00:14:08.302Z,100833.34
2019-04-20T00:16:39.829Z,100829.43
2019-04-20T00:19:22.577Z,100829.47
2019-04-20T00:22:00.297Z,100826.97
2019-04-20T00:24:37.582Z,100823.20
2019-04-20T00:27:40.534Z,100828.70
2019-04-20T00:30:08.930Z,100831.97
2019-04-20T00:32:49.017Z,100830.78
2019-04-20T00:35:08.207Z,100821.72
2019-04-20T00:37:44.607Z,100822.80
2019-04-20T00:40:21.502Z,100828.23
2019-04-20T00:42:59.799Z,100824.38
2019-04-20T00:45:40.074Z,100821.53
2019-04-20T00:48:22.479Z,100827.80
2019-04-20T00:51:11.558Z,100828.84
2019-04-20T00:53:33.349Z,100830.59
2019-04-20T00:56:07.457Z,100826.98
2019-04-20T00:58:58.092Z,100828.38
2019-04-20T01:01:44.162Z,100829.84
2019-04-20T01:06:50.005Z,100824.28
2019-04-20T01:09:18.234Z,100827.06
2019-04-20T01:11:54.523Z,100822.47
2019-04-20T01:14:39.944Z,100826.14
2019-04-20T01:17:11.985Z,100825.84
2019-04-20T01:19:48.809Z,100824.69
2019-04-20T01:22:28.268Z,100826.30
2019-04-20T01:25:09.774Z,100825.61
2019-04-20T01:28:01.027Z,100816.97
2019-04-20T01:30:25.152Z,100821.62
2019-04-20T01:33:12.460Z,100824.00
2019-04-20T01:35:52.167Z,100826.38
2019-04-20T01:38:26.328Z,100824.67
2019-04-20T01:40:50.569Z,100823.38
2019-04-20T01:43:27.037Z,100826.27
2019-04-20T01:46:11.263Z,100820.24
2019-04-20T01:48:41.946Z,100821.28
2019-04-20T01:51:23.419Z,100824.80
2019-04-20T01:54:12.108Z,100824.91
2019-04-20T01:56:47.583Z,100829.06
2019-04-20T01:59:39.950Z,100831.73
2019-04-20T02:02:15.229Z,100835.41
2019-04-20T02:04:53.436Z,100831.66
2019-04-20T02:07:35.026Z,100836.20
2019-04-20T02:10:11.358Z,100830.53
2019-04-20T02:12:50.313Z,100834.61
2019-04-20T02:15:30.997Z,100825.46
2019-04-20T02:18:14.929Z,100832.16
2019-04-20T02:21:01.384Z,100819.40
2019-04-20T02:23:33.014Z,100824.34
2019-04-20T02:25:55.082Z,100823.94
2019-04-20T02:28:58.102Z,100824.40
2019-04-20T02:32:04.994Z,100819.89
2019-04-20T02:37:24.597Z,100822.44
2019-04-20T02:40:05.219Z,100823.83
2019-04-20T02:47:54.937Z,100821.30
2019-04-20T02:50:30.862Z,100823.94
2019-04-20T02:53:15.585Z,100825.28
2019-04-20T02:55:53.445Z,100823.20
2019-04-20T02:58:23.640Z,100824.51
2019-04-20T03:00:52.741Z,100829.87
2019-04-20T03:03:19.566Z,100823.37
2019-04-20T03:06:01.337Z,100826.09
2019-04-20T03:08:38.218Z,100823.07
2019-04-20T03:11:26.221Z,100822.30
2019-04-20T03:13:57.851Z,100822.67
2019-04-20T03:16:32.183Z,100819.22
2019-04-20T03:19:12.948Z,100818.75
2019-04-20T03:22:01.380Z,100822.34
2019-04-20T03:24:33.741Z,100818.35
2019-04-20T03:27:07.915Z,100825.91
2019-04-20T03:29:52.663Z,100825.60
2019-04-20T03:35:25.051Z,100822.61
2019-04-20T03:37:46.567Z,100829.65
2019-04-20T03:40:19.121Z,100827.86
2019-04-20T03:42:39.976Z,100824.79
2019-04-20T03:45:19.341Z,100826.63
2019-04-20T03:48:08.314Z,100825.25
2019-04-20T03:50:50.815Z,100828.75
2019-04-20T03:53:29.815Z,100835.81
2019-04-20T03:56:19.489Z,100832.61
2019-04-20T03:58:57.229Z,100832.16
2019-04-20T04:02:09.313Z,100828.52
2019-04-20T04:04:27.155Z,100828.44
2019-04-20T04:06:51.695Z,100821.00
2019-04-20T04:09:32.966Z,100821.62
2019-04-20T04:12:41.776Z,100820.48
2019-04-20T04:15:16.759Z,100820.21
2019-04-20T04:17:53.116Z,100819.56
2019-04-20T04:20:38.720Z,100815.18
2019-04-20T04:23:22.089Z,100810.98
2019-04-20T04:26:05.853Z,100810.72
2019-04-20T04:28:40.992Z,100809.14
2019-04-20T04:31:24.243Z,100814.57
2019-04-20T04:33:58.112Z,100810.47
2019-04-20T04:36:35.929Z,100803.82
2019-04-20T04:39:15.480Z,100808.09
2019-04-20T04:42:05.215Z,100811.23
2019-04-20T04:44:26.300Z,100812.52
2019-04-20T04:46:56.060Z,100813.67
2019-04-20T04:49:34.399Z,100811.50
2019-04-20T04:52:10.329Z,100816.80
2019-04-20T04:54:53.334Z,100820.08
2019-04-20T04:57:22.244Z,100832.04
2019-04-20T04:59:59.438Z,100839.87
2019-04-20T05:02:43.251Z,100833.42
2019-04-20T05:05:35.558Z,100841.84
2019-04-20T05:08:02.920Z,100846.08
2019-04-20T05:10:31.221Z,100840.80
2019-04-20T05:13:07.205Z,100850.16
2019-04-20T05:15:57.997Z,100845.98
2019-04-20T05:18:48.359Z,100847.53
2019-04-20T05:21:21.620Z,100859.83
2019-04-20T05:24:04.498Z,100856.83
2019-04-20T05:26:53.417Z,100862.16
2019-04-20T05:29:12.525Z,100858.77
2019-04-20T05:31:49.044Z,100871.59
2019-04-20T05:34:45.388Z,100865.25
2019-04-20T05:37:27.218Z,100864.63
2019-04-20T05:39:57.762Z,100864.52
2019-04-20T05:42:40.711Z,100862.15
2019-04-20T05:45:11.564Z,100863.44
2019-04-20T05:47:50.835Z,100865.11
2019-04-20T05:50:28.958Z,100863.71
2019-04-20T05:53:07.253Z,100854.52
2019-04-20T05:55:47.255Z,100857.33
2019-04-20T05:58:22.090Z,100858.14
2019-04-20T06:01:02.815Z,100856.80
2019-04-20T06:03:32.229Z,100861.59
2019-04-20T06:06:20.626Z,100861.49
2019-04-20T06:08:59.597Z,100863.56
2019-04-20T06:11:32.005Z,100865.42
2019-04-20T06:14:11.373Z,100866.10
2019-04-20T06:17:04.872Z,100861.22
2019-04-20T06:19:39.535Z,100860.56
2019-04-20T06:22:28.558Z,100860.76
2019-04-20T06:25:17.021Z,100861.77
2019-04-20T06:27:49.939Z,100857.08
2019-04-20T06:30:14.085Z,100865.73
2019-04-20T06:33:55.294Z,100865.15
2019-04-20T06:36:24.196Z,100850.88
2019-04-20T06:39:02.283Z,100847.65
2019-04-20T06:41:45.542Z,100847.97
2019-04-20T06:44:21.591Z,100852.23
2019-04-20T06:46:53.659Z,100843.81
2019-04-20T06:49:31.518Z,100837.08
2019-04-20T06:52:13.769Z,100838.23
2019-04-20T06:54:45.174Z,100844.81
2019-04-20T06:57:18.458Z,100841.16
2019-04-20T07:02:35.982Z,100844.39
2019-04-20T07:05:12.760Z,100844.92
2019-04-20T07:07:54.773Z,100848.30
2019-04-20T07:10:32.476Z,100850.11
2019-04-20T07:13:00.280Z,100852.59
2019-04-20T07:15:40.138Z,100851.48
2019-04-20T07:18:29.927Z,100851.64
2019-04-20T07:21:12.775Z,100844.72
2019-04-20T07:23:54.527Z,100848.95
2019-04-20T07:26:31.295Z,100839.27
2019-04-20T07:29:13.658Z,100841.77
2019-04-20T07:31:39.352Z,100835.59
2019-04-20T07:34:21.084Z,100839.53
2019-04-20T07:37:09.843Z,100835.00
2019-04-20T07:39:36.383Z,100833.75
2019-04-20T07:42:16.747Z,100832.95
2019-04-20T07:44:57.984Z,100834.55
2019-04-20T07:47:38.699Z,100838.05
2019-04-20T07:50:04.917Z,100827.84
2019-04-20T07:52:36.987Z,100832.81
2019-04-20T07:57:53.722Z,100833.23
2019-04-20T08:00:51.934Z,100835.75
2019-04-20T08:03:32.069Z,100821.72
2019-04-20T08:05:51.202Z,100821.19
2019-04-20T08:08:32.745Z,100812.91
2019-04-20T08:11:17.876Z,100822.25
2019-04-20T08:13:58.727Z,100814.80
2019-04-20T08:16:42.378Z,100822.83
2019-04-20T08:19:04.752Z,100819.02
2019-04-20T08:21:47.300Z,100818.27
2019-04-20T08:24:21.317Z,100816.32
2019-04-20T08:26:50.339Z,100815.06
2019-04-20T08:29:41.796Z,100809.59
2019-04-20T08:32:24.079Z,100812.56
2019-04-20T08:35:05.233Z,100805.36
2019-04-20T08:37:40.192Z,100808.75
2019-04-20T08:40:19.555Z,100800.33
2019-04-20T08:43:02.464Z,100802.57
2019-04-20T08:48:17.412Z,100800.14
2019-04-20T08:50:51.340Z,100795.64
2019-04-20T08:53:33.497Z,100792.55
2019-04-20T08:55:59.076Z,100788.30
2019-04-20T08:58:23.271Z,100787.23
2019-04-20T09:01:03.356Z,100781.59
2019-04-20T09:03:51.229Z,100784.69
2019-04-20T09:06:32.328Z,100780.24
2019-04-20T09:09:19.770Z,100782.13
2019-04-20T09:11:49.236Z,100780.76
2019-04-20T09:14:10.928Z,100773.53
2019-04-20T09:16:57.070Z,100772.69
2019-04-20T09:19:42.130Z,100772.36
2019-04-20T09:22:34.265Z,100768.03
2019-04-20T09:25:50.327Z,100768.73
2019-04-20T09:28:07.490Z,100771.46
2019-04-20T09:30:48.133Z,100757.33
2019-04-20T09:33:44.138Z,100762.13
2019-04-20T09:36:39.828Z,100762.50
2019-04-20T09:39:21.381Z,100767.78
2019-04-20T09:42:00.753Z,100767.01
2019-04-20T09:44:37.520Z,100757.23
2019-04-20T09:47:10.464Z,100759.71
2019-04-20T09:49:58.036Z,100748.84
2019-04-20T09:52:39.903Z,100746.70
2019-04-20T09:55:18.760Z,100742.92
2019-04-20T09:58:05.164Z,100744.67
2019-04-20T10:00:58.825Z,100738.03
2019-04-20T10:03:22.708Z,100741.73
2019-04-20T10:05:59.275Z,100739.64
2019-04-20T10:08:44.749Z,100746.63
2019-04-20T10:11:14.141Z,100737.83
2019-04-20T10:13:52.278Z,100730.84
2019-04-20T10:16:29.464Z,100731.34
2019-04-20T10:19:07.180Z,100730.76
2019-04-20T10:21:43.643Z,100723.78
2019-04-20T10:24:20.907Z,100720.92
2019-04-20T10:26:57.038Z,100719.61
2019-04-20T10:29:35.474Z,100719.85
2019-04-20T10:32:15.522Z,100715.80
2019-04-20T10:34:50.699Z,100709.94
2019-04-20T10:37:29.344Z,100720.82
2019-04-20T10:40:07.268Z,100702.45
2019-04-20T10:42:44.009Z,100703.29
2019-04-20T10:45:21.271Z,100704.77
2019-04-20T10:47:57.398Z,100705.02
2019-04-20T10:50:34.512Z,100696.88
2019-04-20T10:53:12.105Z,100698.47
2019-04-20T10:55:49.520Z,100692.89
2019-04-20T10:58:25.615Z,100687.36
2019-04-20T11:01:01.808Z,100688.62
2019-04-20T11:03:38.456Z,100687.12
2019-04-20T11:06:14.622Z,100686.29
2019-04-20T11:08:50.809Z,100689.97
2019-04-20T11:11:29.180Z,100677.91
2019-04-20T11:14:08.348Z,100672.39
2019-04-20T11:16:44.386Z,100682.66
2019-04-20T11:19:21.176Z,100678.84
2019-04-20T11:21:58.497Z,100673.03
2019-04-20T11:24:34.623Z,100675.89
2019-04-20T11:27:12.052Z,100680.86
2019-04-20T11:29:49.836Z,100669.31
2019-04-20T11:32:26.297Z,100670.41
2019-04-20T11:35:11.079Z,100671.95
2019-04-20T11:37:39.992Z,100672.95
2019-04-20T11:40:17.000Z,100669.52
2019-04-20T11:42:53.383Z,100669.84
2019-04-20T11:45:30.825Z,100661.89
2019-04-20T11:48:07.484Z,100661.14
2019-04-20T11:50:43.502Z,100654.70
2019-04-20T11:53:19.473Z,100661.02
2019-04-20T11:55:56.277Z,100652.03
2019-04-20T11:58:33.136Z,100649.21
2019-04-20T12:01:27.175Z,100640.69
2019-04-20T12:04:09.280Z,100633.23
2019-04-20T12:06:39.125Z,100636.20
2019-04-20T12:09:15.217Z,100632.70
2019-04-20T12:12:04.178Z,100643.97
2019-04-20T12:14:28.797Z,100629.68
2019-04-20T12:17:05.898Z,100638.29
2019-04-20T12:19:43.873Z,100624.23
2019-04-20T12:22:19.895Z,100614.12
2019-04-20T12:24:56.243Z,100617.05
2019-04-20T12:27:32.553Z,100611.59
2019-04-20T12:30:12.094Z,100623.98
2019-04-20T12:32:52.654Z,100614.12
2019-04-20T12:35:26.494Z,100613.82
2019-04-20T12:38:03.107Z,100605.80
2019-04-20T12:40:39.953Z,100606.22
2019-04-20T12:43:17.197Z,100598.19
2019-04-20T12:45:53.838Z,100604.94
2019-04-20T12:48:31.506Z,100605.67
2019-04-20T12:51:07.832Z,100582.89
2019-04-20T12:53:44.540Z,100580.97
2019-04-20T12:56:20.491Z,100584.58
2019-04-20T12:58:57.780Z,100578.45
2019-04-20T13:01:33.716Z,100589.08
2019-04-20T13:04:09.678Z,100566.50
2019-04-20T13:06:46.976Z,100579.11
2019-04-20T13:09:23.142Z,100559.88
2019-04-20T13:12:05.476Z,100573.19
2019-04-20T13:14:52.701Z,100565.12
2019-04-20T13:17:28.586Z,100551.16
2019-04-20T13:20:07.887Z,100557.23
2019-04-20T13:22:44.317Z,100570.31
2019-04-20T13:25:21.058Z,100565.69
2019-04-20T13:27:57.164Z,100552.28
2019-04-20T13:30:33.527Z,100552.61
2019-04-20T13:33:10.120Z,100540.16
2019-04-20T13:35:46.267Z,100536.22
2019-04-20T13:38:22.512Z,100542.73
2019-04-20T13:40:59.887Z,100532.33
2019-04-20T13:43:35.971Z,100534.08
2019-04-20T13:46:13.263Z,100540.02
2019-04-20T13:48:49.419Z,100523.92
2019-04-20T13:51:26.542Z,100525.36
2019-04-20T13:54:07.379Z,100520.40
2019-04-20T13:56:41.768Z,100510.44
2019-04-20T13:59:25.857Z,100518.19
2019-04-20T14:02:06.831Z,100516.83
2019-04-20T14:04:44.568Z,100514.08
2019-04-20T14:07:21.884Z,100504.95
2019-04-20T14:09:57.950Z,100505.95
2019-04-20T14:12:38.622Z,100501.37
2019-04-20T14:15:13.217Z,100497.45
2019-04-20T14:17:49.254Z,100515.72
2019-04-20T14:20:26.021Z,100498.09
2019-04-20T14:23:03.216Z,100499.53
2019-04-20T14:25:39.323Z,100496.74
2019-04-20T14:28:15.520Z,100489.77
2019-04-20T14:30:52.015Z,100492.71
2019-04-20T14:33:28.628Z,100487.63
2019-04-20T14:36:05.209Z,100495.23
2019-04-20T14:38:43.731Z,100484.78
2019-04-20T14:41:20.143Z,100483.86
2019-04-20T14:43:57.286Z,100485.35
2019-04-20T14:46:33.644Z,100485.32
2019-04-20T14:49:10.423Z,100488.72
2019-04-20T14:51:47.723Z,100484.91
2019-04-20T14:54:23.864Z,100482.27
2019-04-20T14:57:01.265Z,100482.42
2019-04-20T14:59:39.065Z,100478.67
2019-04-20T15:02:17.398Z,100485.55
2019-04-20T15:04:54.823Z,100482.56
2019-04-20T15:07:30.952Z,100474.44
2019-04-20T15:10:08.999Z,100474.98
2019-04-20T15:12:49.917Z,100471.70
2019-04-20T15:15:22.948Z,100456.91
2019-04-20T15:18:09.459Z,100461.23
2019-04-20T15:20:47.795Z,100465.39
2019-04-20T15:23:25.708Z,100469.51
2019-04-20T15:26:02.433Z,100460.77
2019-04-20T15:28:38.648Z,100455.05
2019-04-20T15:31:14.696Z,100456.95
2019-04-20T15:33:50.888Z,100461.25
2019-04-20T15:36:28.365Z,100455.55
2019-04-20T15:39:07.327Z,100450.05
2019-04-20T15:41:45.298Z,100455.16
2019-04-20T15:44:23.242Z,100459.58
2019-04-20T15:46:59.436Z,100460.92
2019-04-20T15:49:35.842Z,100449.91
2019-04-20T15:52:17.906Z,100444.78
2019-04-20T15:54:49.949Z,100446.06
2019-04-20T15:57:29.135Z,100440.77
2019-04-20T16:00:06.561Z,100445.09
2019-04-20T16:02:53.698Z,100440.71
2019-04-20T16:05:49.629Z,100440.60
2019-04-20T16:08:38.975Z,100439.69
2019-04-20T16:11:15.347Z,100440.11
2019-04-20T16:13:53.903Z,100434.63
2019-04-20T16:16:29.967Z,100435.13
2019-04-20T16:19:13.637Z,100436.63
2019-04-20T16:21:43.929Z,100431.23
2019-04-20T16:24:22.349Z,100432.62
2019-04-20T16:26:59.912Z,100426.14
2019-04-20T16:29:36.421Z,100425.43
2019-04-20T16:32:14.361Z,100422.77
2019-04-20T16:34:50.742Z,100417.42
2019-04-20T16:37:26.719Z,100418.53
2019-04-20T16:40:04.295Z,100424.41
2019-04-20T16:42:42.265Z,100415.77
2019-04-20T16:45:19.145Z,100420.56
2019-04-20T16:47:55.141Z,100418.72
2019-04-20T16:50:31.301Z,100419.72
2019-04-20T16:53:08.769Z,100421.77
2019-04-20T16:55:45.378Z,100422.98
2019-04-20T16:58:21.735Z,100420.55
2019-04-20T17:00:59.266Z,100419.81
2019-04-20T17:03:45.970Z,100418.47
2019-04-20T17:06:13.847Z,100415.89
2019-04-20T17:08:51.202Z,100413.17
2019-04-20T17:11:27.768Z,100417.20
2019-04-20T17:14:03.822Z,100417.20
2019-04-20T17:16:39.788Z,100415.86
2019-04-20T17:19:15.731Z,100415.70
2019-04-20T17:21:53.379Z,100414.46
2019-04-20T17:24:29.687Z,100412.37
2019-04-20T17:27:10.852Z,100415.28
2019-04-20T17:30:05.260Z,100414.36
2019-04-20T17:32:43.359Z,100419.72
2019-04-20T17:35:32.878Z,100413.58
2019-04-20T17:37:58.437Z,100419.89
2019-04-20T17:40:55.914Z,100416.20
2019-04-20T17:43:22.994Z,100417.17
2019-04-20T17:46:00.656Z,100417.16
2019-04-20T17:48:39.964Z,100421.26
2019-04-20T17:51:27.734Z,100419.99
2019-04-20T17:53:54.546Z,100418.72
2019-04-20T17:56:26.414Z,100427.84
2019-04-20T17:59:02.409Z,100425.22
2019-04-20T18:02:07.831Z,100428.83
2019-04-20T18:05:14.495Z,100436.95
2019-04-20T18:07:46.287Z,100436.91
2019-04-20T18:10:22.661Z,100441.27
2019-04-20T18:12:46.262Z,100440.37
2019-04-20T18:15:39.074Z,100446.10
2019-04-20T18:18:32.385Z,100444.10
2019-04-20T18:21:10.806Z,100442.59
2019-04-20T18:23:49.836Z,100446.67
2019-04-20T18:26:45.448Z,100447.83
2019-04-20T18:29:25.674Z,100447.48
2019-04-20T18:31:57.712Z,100451.95
2019-04-20T18:34:45.836Z,100449.58
2019-04-20T18:37:21.464Z,100453.55
2019-04-20T18:40:03.086Z,100452.30
2019-04-20T18:42:40.665Z,100452.52
2019-04-20T18:45:28.463Z,100458.95
2019-04-20T18:48:11.690Z,100453.77
2019-04-20T18:50:37.670Z,100453.67
2019-04-20T18:53:05.995Z,100452.27
2019-04-20T18:55:52.741Z,100451.64
2019-04-20T18:58:31.216Z,100454.98
2019-04-20T19:01:07.630Z,100457.80
2019-04-20T19:03:45.520Z,100458.59
2019-04-20T19:06:21.528Z,100453.25
2019-04-20T19:08:58.990Z,100452.22
2019-04-20T19:11:55.899Z,100460.34
2019-04-20T19:14:34.932Z,100456.17
2019-04-20T19:17:17.218Z,100451.33
2019-04-20T19:19:53.441Z,100448.84
2019-04-20T19:22:28.085Z,100449.64
2019-04-20T19:25:05.600Z,100447.14
2019-04-20T19:27:48.568Z,100454.63
2019-04-20T19:30:31.339Z,100455.22
2019-04-20T19:33:17.557Z,100452.55
2019-04-20T19:35:48.143Z,100445.57
2019-04-20T19:38:20.677Z,100443.76
2019-04-20T19:41:01.735Z,100438.41
2019-04-20T19:43:41.137Z,100438.34
2019-04-20T19:46:39.669Z,100444.76
2019-04-20T19:48:56.551Z,100438.27
2019-04-20T19:51:47.679Z,100443.81
2019-04-20T19:54:26.914Z,100443.52
2019-04-20T19:56:58.287Z,100439.63
2019-04-20T19:59:25.983Z,100439.13
2019-04-20T20:01:57.962Z,100440.66
2019-04-20T20:04:41.443Z,100437.69
2019-04-20T20:07:21.983Z,100441.70
2019-04-20T20:09:55.519Z,100438.42
2019-04-20T20:12:29.527Z,100438.38
2019-04-20T20:15:14.847Z,100440.37
2019-04-20T20:18:05.809Z,100440.83
2019-04-20T20:20:41.247Z,100440.41
2019-04-20T20:23:01.602Z,100436.18
2019-04-20T20:25:44.683Z,100438.63
2019-04-20T20:28:32.241Z,100439.86
2019-04-20T20:31:12.369Z,100443.94
2019-04-20T20:33:55.948Z,100441.05
2019-04-20T20:36:23.003Z,100443.64
2019-04-20T20:39:04.484Z,100440.97
2019-04-20T20:41:45.072Z,100440.75
2019-04-20T20:44:26.096Z,100440.37
2019-04-20T20:47:00.787Z,100438.70
2019-04-20T20:49:48.649Z,100440.78
2019-04-20T20:52:21.912Z,100442.85
2019-04-20T20:54:56.492Z,100442.81
2019-04-20T20:57:24.353Z,100445.23
2019-04-20T21:00:03.676Z,100445.48
2019-04-20T21:02:44.733Z,100444.95
2019-04-20T21:05:15.559Z,100453.45
2019-04-20T21:07:51.713Z,100451.28
2019-04-20T21:10:33.077Z,100451.22
2019-04-20T21:13:10.031Z,100451.88
2019-04-20T21:15:52.269Z,100446.23
2019-04-20T21:18:43.524Z,100451.63
2019-04-20T21:21:17.028Z,100439.88
2019-04-20T21:23:48.135Z,100445.76
2019-04-20T21:26:28.033Z,100441.38
2019-04-20T21:28:52.982Z,100438.82
2019-04-20T21:31:29.713Z,100443.13
2019-04-20T21:34:12.654Z,100441.52
2019-04-20T21:36:45.059Z,100443.01
2019-04-20T21:39:32.429Z,100444.12
2019-04-20T21:42:05.411Z,100443.34
2019-04-20T21:44:41.344Z,100442.63
2019-04-20T21:47:17.726Z,100445.05
2019-04-20T21:50:09.842Z,100437.45
2019-04-20T21:52:36.139Z,100435.77
2019-04-20T21:55:08.314Z,100438.75
2019-04-20T21:57:50.115Z,100434.78
2019-04-20T22:00:44.536Z,100434.36
2019-04-20T22:03:18.536Z,100432.45
2019-04-20T22:06:04.511Z,100429.67
2019-04-20T22:08:49.594Z,100427.70
2019-04-20T22:11:20.052Z,100431.27
2019-04-20T22:13:57.369Z,100432.42
2019-04-20T22:16:38.884Z,100436.70
2019-04-20T22:19:26.438Z,100443.29
2019-04-20T22:22:00.999Z,100433.52
2019-04-20T22:24:57.790Z,100435.76
2019-04-20T22:27:36.703Z,100434.22
2019-04-20T22:30:24.054Z,100438.88
2019-04-20T22:33:18.571Z,100440.20
2019-04-20T22:36:04.112Z,100437.31
2019-04-20T22:38:59.432Z,100440.83
2019-04-20T22:41:54.670Z,100435.33
2019-04-20T22:44:30.346Z,100439.89
2019-04-20T22:47:13.883Z,100428.14
2019-04-20T22:50:07.856Z,100437.25
2019-04-20T22:52:43.052Z,100432.61
2019-04-20T22:55:27.110Z,100430.57
2019-04-20T22:57:54.653Z,100425.12
2019-04-20T23:00:36.525Z,100427.44
2019-04-20T23:03:00.845Z,100425.31
2019-04-20T23:05:38.618Z,100422.85
2019-04-20T23:08:15.005Z,100426.45
2019-04-20T23:10:51.451Z,100425.31
2019-04-20T23:13:34.360Z,100422.38
2019-04-20T23:16:06.108Z,100422.38
2019-04-20T23:18:44.315Z,100423.13
2019-04-20T23:21:21.715Z,100415.27
2019-04-20T23:24:00.328Z,100417.88
2019-04-20T23:26:38.692Z,100415.73
2019-04-20T23:29:13.412Z,100414.75
2019-04-20T23:31:56.937Z,100412.51
2019-04-20T23:34:30.988Z,100411.52
2019-04-20T23:37:09.924Z,100412.51
2019-04-20T23:39:44.995Z,100406.45
2019-04-20T23:42:27.972Z,100404.07
2019-04-20T23:45:07.540Z,100403.27
2019-04-20T23:47:54.118Z,100399.34
2019-04-20T23:50:43.567Z,100402.94
2019-04-20T23:53:19.844Z,100401.74
2019-04-20T23:55:41.685Z,100405.20
2019-04-20T23:58:18.219Z,100406.39
